sensor_id;sensor_type;location;lat;lon;timestamp;P1;durP1;ratioP1;P2;durP2;ratioP2
11807;SDS011;5961;42.640;23.380;2023-11-21T00:02:16;3.03;;;2.30;;
11807;SDS011;5961;42.640;23.380;2023-11-21T00:04:44;2.83;;;2.23;;
11807;SDS011;5961;42.640;23.380;2023-11-21T00:07:11;4.07;;;2.63;;
11807;SDS011;5961;42.640;23.380;2023-11-21T00:09:37;4.17;;;2.40;;
11807;SDS011;5961;42.640;23.380;2023-11-21T00:12:04;3.50;;;2.60;;
11807;SDS011;5961;42.640;23.380;2023-11-21T00:14:35;3.63;;;2.70;;
11807;SDS011;5961;42.640;23.380;2023-11-21T00:17:01;3.90;;;2.20;;
11807;SDS011;5961;42.640;23.380;2023-11-21T00:19:28;4.60;;;2.20;;
11807;SDS011;5961;42.640;23.380;2023-11-21T00:21:56;2.87;;;2.27;;
11807;SDS011;5961;42.640;23.380;2023-11-21T00:24:24;3.00;;;2.30;;
11807;SDS011;5961;42.640;23.380;2023-11-21T00:26:51;3.83;;;1.93;;
11807;SDS011;5961;42.640;23.380;2023-11-21T00:29:18;3.43;;;2.80;;
11807;SDS011;5961;42.640;23.380;2023-11-21T00:31:45;2.43;;;2.20;;
11807;SDS011;5961;42.640;23.380;2023-11-21T00:34:11;2.80;;;2.20;;
11807;SDS011;5961;42.640;23.380;2023-11-21T00:36:38;3.70;;;2.50;;
11807;SDS011;5961;42.640;23.380;2023-11-21T00:39:07;7.37;;;2.90;;
11807;SDS011;5961;42.640;23.380;2023-11-21T00:41:34;2.73;;;2.20;;
11807;SDS011;5961;42.640;23.380;2023-11-21T00:44:01;2.83;;;2.33;;
11807;SDS011;5961;42.640;23.380;2023-11-21T00:46:28;2.90;;;2.33;;
11807;SDS011;5961;42.640;23.380;2023-11-21T00:48:55;4.07;;;2.70;;
11807;SDS011;5961;42.640;23.380;2023-11-21T00:51:22;3.17;;;2.60;;
11807;SDS011;5961;42.640;23.380;2023-11-21T00:53:49;3.03;;;2.53;;
11807;SDS011;5961;42.640;23.380;2023-11-21T00:56:18;4.10;;;2.57;;
11807;SDS011;5961;42.640;23.380;2023-11-21T00:58:45;4.33;;;2.77;;
11807;SDS011;5961;42.640;23.380;2023-11-21T01:01:15;3.77;;;3.17;;
11807;SDS011;5961;42.640;23.380;2023-11-21T01:03:41;8.33;;;5.20;;
11807;SDS011;5961;42.640;23.380;2023-11-21T01:06:08;8.27;;;4.10;;
11807;SDS011;5961;42.640;23.380;2023-11-21T01:08:35;4.53;;;3.17;;
11807;SDS011;5961;42.640;23.380;2023-11-21T01:11:02;4.90;;;2.70;;
11807;SDS011;5961;42.640;23.380;2023-11-21T01:13:31;5.80;;;3.33;;
11807;SDS011;5961;42.640;23.380;2023-11-21T01:15:57;7.67;;;4.90;;
11807;SDS011;5961;42.640;23.380;2023-11-21T01:18:24;8.03;;;4.80;;
11807;SDS011;5961;42.640;23.380;2023-11-21T01:20:51;11.10;;;6.30;;
11807;SDS011;5961;42.640;23.380;2023-11-21T01:23:19;5.17;;;2.83;;
11807;SDS011;5961;42.640;23.380;2023-11-21T01:25:45;4.97;;;2.60;;
11807;SDS011;5961;42.640;23.380;2023-11-21T01:28:12;4.23;;;2.90;;
11807;SDS011;5961;42.640;23.380;2023-11-21T01:30:40;3.20;;;2.80;;
11807;SDS011;5961;42.640;23.380;2023-11-21T01:33:07;4.57;;;2.70;;
11807;SDS011;5961;42.640;23.380;2023-11-21T01:35:34;3.43;;;2.50;;
11807;SDS011;5961;42.640;23.380;2023-11-21T01:38:01;3.97;;;2.70;;
11807;SDS011;5961;42.640;23.380;2023-11-21T01:40:29;3.67;;;2.43;;
11807;SDS011;5961;42.640;23.380;2023-11-21T01:42:55;2.93;;;2.53;;
11807;SDS011;5961;42.640;23.380;2023-11-21T01:45:23;2.50;;;2.17;;
11807;SDS011;5961;42.640;23.380;2023-11-21T01:47:51;3.40;;;2.23;;
11807;SDS011;5961;42.640;23.380;2023-11-21T01:50:18;3.07;;;2.40;;
11807;SDS011;5961;42.640;23.380;2023-11-21T01:52:47;3.83;;;2.43;;
11807;SDS011;5961;42.640;23.380;2023-11-21T01:55:15;2.97;;;2.40;;
11807;SDS011;5961;42.640;23.380;2023-11-21T01:57:44;4.13;;;2.43;;
11807;SDS011;5961;42.640;23.380;2023-11-21T02:00:12;3.30;;;2.43;;
11807;SDS011;5961;42.640;23.380;2023-11-21T02:02:42;2.80;;;2.47;;
11807;SDS011;5961;42.640;23.380;2023-11-21T02:05:11;3.63;;;2.60;;
11807;SDS011;5961;42.640;23.380;2023-11-21T02:07:38;4.47;;;2.60;;
11807;SDS011;5961;42.640;23.380;2023-11-21T02:10:05;4.97;;;2.83;;
11807;SDS011;5961;42.640;23.380;2023-11-21T02:12:33;2.70;;;2.43;;
11807;SDS011;5961;42.640;23.380;2023-11-21T02:15:00;3.77;;;2.90;;
11807;SDS011;5961;42.640;23.380;2023-11-21T02:17:28;3.93;;;2.90;;
11807;SDS011;5961;42.640;23.380;2023-11-21T02:19:55;4.20;;;2.93;;
11807;SDS011;5961;42.640;23.380;2023-11-21T02:22:23;5.20;;;3.60;;
11807;SDS011;5961;42.640;23.380;2023-11-21T02:24:53;3.97;;;2.67;;
11807;SDS011;5961;42.640;23.380;2023-11-21T02:27:20;5.90;;;3.00;;
11807;SDS011;5961;42.640;23.380;2023-11-21T02:29:48;3.53;;;2.60;;
11807;SDS011;5961;42.640;23.380;2023-11-21T02:32:15;3.43;;;2.30;;
11807;SDS011;5961;42.640;23.380;2023-11-21T02:34:44;3.67;;;2.53;;
11807;SDS011;5961;42.640;23.380;2023-11-21T02:37:11;4.93;;;2.57;;
11807;SDS011;5961;42.640;23.380;2023-11-21T02:39:38;4.47;;;3.20;;
11807;SDS011;5961;42.640;23.380;2023-11-21T02:42:06;5.97;;;4.10;;
11807;SDS011;5961;42.640;23.380;2023-11-21T02:44:33;5.83;;;3.77;;
11807;SDS011;5961;42.640;23.380;2023-11-21T02:47:00;5.47;;;3.67;;
11807;SDS011;5961;42.640;23.380;2023-11-21T02:49:28;7.07;;;3.77;;
11807;SDS011;5961;42.640;23.380;2023-11-21T02:51:56;5.87;;;4.00;;
11807;SDS011;5961;42.640;23.380;2023-11-21T02:54:22;7.13;;;3.80;;
11807;SDS011;5961;42.640;23.380;2023-11-21T02:56:49;7.03;;;4.20;;
11807;SDS011;5961;42.640;23.380;2023-11-21T02:59:18;8.33;;;4.20;;
11807;SDS011;5961;42.640;23.380;2023-11-21T03:01:44;9.50;;;5.03;;
11807;SDS011;5961;42.640;23.380;2023-11-21T03:04:11;7.97;;;3.90;;
11807;SDS011;5961;42.640;23.380;2023-11-21T03:06:42;8.63;;;5.73;;
11807;SDS011;5961;42.640;23.380;2023-11-21T03:09:09;7.93;;;3.83;;
11807;SDS011;5961;42.640;23.380;2023-11-21T03:11:37;6.10;;;3.47;;
11807;SDS011;5961;42.640;23.380;2023-11-21T03:14:03;4.77;;;3.23;;
11807;SDS011;5961;42.640;23.380;2023-11-21T03:16:32;5.00;;;3.57;;
11807;SDS011;5961;42.640;23.380;2023-11-21T03:18:59;4.10;;;3.00;;
11807;SDS011;5961;42.640;23.380;2023-11-21T03:21:25;4.47;;;3.37;;
11807;SDS011;5961;42.640;23.380;2023-11-21T03:23:52;3.43;;;3.00;;
11807;SDS011;5961;42.640;23.380;2023-11-21T03:26:19;5.63;;;2.73;;
11807;SDS011;5961;42.640;23.380;2023-11-21T03:28:46;5.93;;;2.47;;
11807;SDS011;5961;42.640;23.380;2023-11-21T03:31:12;3.00;;;2.23;;
11807;SDS011;5961;42.640;23.380;2023-11-21T03:33:42;3.33;;;2.43;;
11807;SDS011;5961;42.640;23.380;2023-11-21T03:36:10;3.27;;;2.20;;
11807;SDS011;5961;42.640;23.380;2023-11-21T03:38:37;3.07;;;2.60;;
11807;SDS011;5961;42.640;23.380;2023-11-21T03:41:05;3.87;;;2.47;;
11807;SDS011;5961;42.640;23.380;2023-11-21T03:43:32;4.87;;;2.77;;
11807;SDS011;5961;42.640;23.380;2023-11-21T03:45:58;5.10;;;2.97;;
11807;SDS011;5961;42.640;23.380;2023-11-21T03:48:25;5.60;;;2.97;;
11807;SDS011;5961;42.640;23.380;2023-11-21T03:50:53;4.73;;;3.77;;
11807;SDS011;5961;42.640;23.380;2023-11-21T03:53:20;12.17;;;8.37;;
11807;SDS011;5961;42.640;23.380;2023-11-21T03:55:47;13.47;;;8.87;;
11807;SDS011;5961;42.640;23.380;2023-11-21T03:58:14;13.77;;;9.10;;
11807;SDS011;5961;42.640;23.380;2023-11-21T04:00:41;16.87;;;10.07;;
11807;SDS011;5961;42.640;23.380;2023-11-21T04:03:07;15.73;;;10.63;;
11807;SDS011;5961;42.640;23.380;2023-11-21T04:05:34;16.17;;;10.37;;
11807;SDS011;5961;42.640;23.380;2023-11-21T04:08:02;18.73;;;11.30;;
11807;SDS011;5961;42.640;23.380;2023-11-21T04:10:29;18.07;;;10.43;;
11807;SDS011;5961;42.640;23.380;2023-11-21T04:12:56;20.40;;;11.70;;
11807;SDS011;5961;42.640;23.380;2023-11-21T04:15:23;19.90;;;11.67;;
11807;SDS011;5961;42.640;23.380;2023-11-21T04:17:50;16.23;;;10.40;;
11807;SDS011;5961;42.640;23.380;2023-11-21T04:20:16;16.57;;;10.07;;
11807;SDS011;5961;42.640;23.380;2023-11-21T04:22:44;17.47;;;10.20;;
11807;SDS011;5961;42.640;23.380;2023-11-21T04:25:13;14.67;;;10.03;;
11807;SDS011;5961;42.640;23.380;2023-11-21T04:27:42;16.63;;;9.70;;
11807;SDS011;5961;42.640;23.380;2023-11-21T04:30:11;14.67;;;9.27;;
11807;SDS011;5961;42.640;23.380;2023-11-21T04:32:38;11.37;;;7.90;;
11807;SDS011;5961;42.640;23.380;2023-11-21T04:35:05;13.30;;;7.13;;
11807;SDS011;5961;42.640;23.380;2023-11-21T04:37:33;10.13;;;6.80;;
11807;SDS011;5961;42.640;23.380;2023-11-21T04:40:00;10.60;;;7.27;;
11807;SDS011;5961;42.640;23.380;2023-11-21T04:42:32;14.80;;;7.27;;
11807;SDS011;5961;42.640;23.380;2023-11-21T04:45:00;14.53;;;6.77;;
11807;SDS011;5961;42.640;23.380;2023-11-21T04:47:30;15.80;;;7.93;;
11807;SDS011;5961;42.640;23.380;2023-11-21T04:49:57;11.50;;;7.97;;
11807;SDS011;5961;42.640;23.380;2023-11-21T04:52:23;11.43;;;7.27;;
11807;SDS011;5961;42.640;23.380;2023-11-21T04:54:50;9.17;;;6.37;;
11807;SDS011;5961;42.640;23.380;2023-11-21T04:57:19;10.70;;;6.53;;
11807;SDS011;5961;42.640;23.380;2023-11-21T04:59:48;11.67;;;6.93;;
11807;SDS011;5961;42.640;23.380;2023-11-21T05:02:15;8.90;;;6.20;;
11807;SDS011;5961;42.640;23.380;2023-11-21T05:04:44;11.03;;;6.80;;
11807;SDS011;5961;42.640;23.380;2023-11-21T05:07:11;7.33;;;4.90;;
11807;SDS011;5961;42.640;23.380;2023-11-21T05:09:40;7.47;;;4.50;;
11807;SDS011;5961;42.640;23.380;2023-11-21T05:12:09;7.60;;;4.23;;
11807;SDS011;5961;42.640;23.380;2023-11-21T05:14:36;9.53;;;4.17;;
11807;SDS011;5961;42.640;23.380;2023-11-21T05:17:04;5.87;;;4.30;;
11807;SDS011;5961;42.640;23.380;2023-11-21T05:19:33;8.80;;;3.93;;
11807;SDS011;5961;42.640;23.380;2023-11-21T05:22:00;7.17;;;4.03;;
11807;SDS011;5961;42.640;23.380;2023-11-21T05:24:27;5.83;;;4.20;;
11807;SDS011;5961;42.640;23.380;2023-11-21T05:26:54;6.03;;;4.17;;
11807;SDS011;5961;42.640;23.380;2023-11-21T05:29:21;7.10;;;4.03;;
11807;SDS011;5961;42.640;23.380;2023-11-21T05:31:48;5.10;;;3.33;;
11807;SDS011;5961;42.640;23.380;2023-11-21T05:34:16;5.80;;;3.27;;
11807;SDS011;5961;42.640;23.380;2023-11-21T05:36:43;4.73;;;3.30;;
11807;SDS011;5961;42.640;23.380;2023-11-21T05:39:10;10.30;;;3.30;;
11807;SDS011;5961;42.640;23.380;2023-11-21T05:41:37;4.80;;;3.37;;
11807;SDS011;5961;42.640;23.380;2023-11-21T05:44:04;4.50;;;3.43;;
11807;SDS011;5961;42.640;23.380;2023-11-21T05:46:31;5.97;;;3.80;;
11807;SDS011;5961;42.640;23.380;2023-11-21T05:48:58;6.67;;;3.60;;
11807;SDS011;5961;42.640;23.380;2023-11-21T05:51:26;8.30;;;4.37;;
11807;SDS011;5961;42.640;23.380;2023-11-21T05:53:53;8.73;;;4.33;;
11807;SDS011;5961;42.640;23.380;2023-11-21T05:56:20;9.80;;;4.50;;
11807;SDS011;5961;42.640;23.380;2023-11-21T05:58:47;8.33;;;4.83;;
11807;SDS011;5961;42.640;23.380;2023-11-21T06:01:13;8.07;;;4.30;;
11807;SDS011;5961;42.640;23.380;2023-11-21T06:03:40;7.47;;;4.97;;
11807;SDS011;5961;42.640;23.380;2023-11-21T06:06:08;8.47;;;4.93;;
11807;SDS011;5961;42.640;23.380;2023-11-21T06:08:36;8.63;;;6.20;;
11807;SDS011;5961;42.640;23.380;2023-11-21T06:11:03;13.07;;;7.23;;
11807;SDS011;5961;42.640;23.380;2023-11-21T06:13:30;12.27;;;8.20;;
11807;SDS011;5961;42.640;23.380;2023-11-21T06:15:59;15.70;;;8.93;;
11807;SDS011;5961;42.640;23.380;2023-11-21T06:18:26;13.07;;;8.70;;
11807;SDS011;5961;42.640;23.380;2023-11-21T06:20:53;14.77;;;9.40;;
11807;SDS011;5961;42.640;23.380;2023-11-21T06:23:19;16.13;;;9.53;;
11807;SDS011;5961;42.640;23.380;2023-11-21T06:25:48;17.50;;;10.80;;
11807;SDS011;5961;42.640;23.380;2023-11-21T06:28:14;21.03;;;12.00;;
11807;SDS011;5961;42.640;23.380;2023-11-21T06:30:42;19.43;;;12.70;;
11807;SDS011;5961;42.640;23.380;2023-11-21T06:33:09;20.63;;;12.87;;
11807;SDS011;5961;42.640;23.380;2023-11-21T06:35:36;19.23;;;11.97;;
11807;SDS011;5961;42.640;23.380;2023-11-21T06:38:03;23.97;;;14.13;;
11807;SDS011;5961;42.640;23.380;2023-11-21T06:40:30;19.87;;;12.23;;
11807;SDS011;5961;42.640;23.380;2023-11-21T06:43:00;20.97;;;12.37;;
11807;SDS011;5961;42.640;23.380;2023-11-21T06:45:27;21.00;;;13.17;;
11807;SDS011;5961;42.640;23.380;2023-11-21T06:47:53;22.87;;;13.23;;
11807;SDS011;5961;42.640;23.380;2023-11-21T06:50:20;20.80;;;13.63;;
11807;SDS011;5961;42.640;23.380;2023-11-21T06:52:47;21.80;;;13.30;;
11807;SDS011;5961;42.640;23.380;2023-11-21T06:55:14;18.77;;;12.80;;
11807;SDS011;5961;42.640;23.380;2023-11-21T06:57:42;19.47;;;12.83;;
11807;SDS011;5961;42.640;23.380;2023-11-21T07:00:11;20.03;;;13.13;;
11807;SDS011;5961;42.640;23.380;2023-11-21T07:02:40;20.80;;;13.77;;
11807;SDS011;5961;42.640;23.380;2023-11-21T07:05:07;20.77;;;13.33;;
11807;SDS011;5961;42.640;23.380;2023-11-21T07:07:34;20.37;;;13.07;;
11807;SDS011;5961;42.640;23.380;2023-11-21T07:10:02;21.90;;;13.10;;
11807;SDS011;5961;42.640;23.380;2023-11-21T07:12:30;19.43;;;12.37;;
11807;SDS011;5961;42.640;23.380;2023-11-21T07:14:57;19.27;;;12.30;;
11807;SDS011;5961;42.640;23.380;2023-11-21T07:17:25;18.00;;;11.63;;
11807;SDS011;5961;42.640;23.380;2023-11-21T07:19:53;18.13;;;12.10;;
11807;SDS011;5961;42.640;23.380;2023-11-21T07:22:20;20.40;;;12.43;;
11807;SDS011;5961;42.640;23.380;2023-11-21T07:24:48;22.53;;;12.30;;
11807;SDS011;5961;42.640;23.380;2023-11-21T07:27:16;21.47;;;12.30;;
11807;SDS011;5961;42.640;23.380;2023-11-21T07:29:43;17.90;;;11.87;;
11807;SDS011;5961;42.640;23.380;2023-11-21T07:32:10;19.23;;;11.03;;
11807;SDS011;5961;42.640;23.380;2023-11-21T07:34:39;17.97;;;11.30;;
11807;SDS011;5961;42.640;23.380;2023-11-21T07:37:06;15.87;;;10.23;;
11807;SDS011;5961;42.640;23.380;2023-11-21T07:39:34;16.60;;;10.43;;
11807;SDS011;5961;42.640;23.380;2023-11-21T07:42:01;16.73;;;10.50;;
11807;SDS011;5961;42.640;23.380;2023-11-21T07:44:27;18.00;;;10.80;;
11807;SDS011;5961;42.640;23.380;2023-11-21T07:46:54;15.20;;;9.53;;
11807;SDS011;5961;42.640;23.380;2023-11-21T07:49:22;23.83;;;9.27;;
11807;SDS011;5961;42.640;23.380;2023-11-21T07:51:50;12.50;;;8.93;;
11807;SDS011;5961;42.640;23.380;2023-11-21T07:54:17;15.10;;;8.47;;
11807;SDS011;5961;42.640;23.380;2023-11-21T07:56:44;12.50;;;8.30;;
11807;SDS011;5961;42.640;23.380;2023-11-21T07:59:11;14.03;;;8.23;;
11807;SDS011;5961;42.640;23.380;2023-11-21T08:01:39;19.63;;;9.37;;
11807;SDS011;5961;42.640;23.380;2023-11-21T08:04:08;14.20;;;9.10;;
11807;SDS011;5961;42.640;23.380;2023-11-21T08:06:35;12.20;;;8.60;;
11807;SDS011;5961;42.640;23.380;2023-11-21T08:09:03;17.57;;;8.97;;
11807;SDS011;5961;42.640;23.380;2023-11-21T08:11:30;15.30;;;8.20;;
11807;SDS011;5961;42.640;23.380;2023-11-21T08:13:58;11.70;;;7.77;;
11807;SDS011;5961;42.640;23.380;2023-11-21T08:16:25;14.27;;;8.13;;
11807;SDS011;5961;42.640;23.380;2023-11-21T08:18:52;16.03;;;7.83;;
11807;SDS011;5961;42.640;23.380;2023-11-21T08:21:19;13.80;;;8.40;;
11807;SDS011;5961;42.640;23.380;2023-11-21T08:23:46;11.83;;;7.60;;
11807;SDS011;5961;42.640;23.380;2023-11-21T08:26:20;18.60;;;8.97;;
11807;SDS011;5961;42.640;23.380;2023-11-21T08:28:47;21.40;;;10.33;;
11807;SDS011;5961;42.640;23.380;2023-11-21T08:31:14;14.37;;;9.27;;
11807;SDS011;5961;42.640;23.380;2023-11-21T08:33:40;12.60;;;9.40;;
11807;SDS011;5961;42.640;23.380;2023-11-21T08:36:07;16.07;;;10.10;;
11807;SDS011;5961;42.640;23.380;2023-11-21T08:38:36;16.93;;;10.57;;
11807;SDS011;5961;42.640;23.380;2023-11-21T08:41:04;17.20;;;9.37;;
11807;SDS011;5961;42.640;23.380;2023-11-21T08:43:34;18.30;;;9.63;;
11807;SDS011;5961;42.640;23.380;2023-11-21T08:46:05;19.30;;;10.07;;
11807;SDS011;5961;42.640;23.380;2023-11-21T08:48:34;18.60;;;10.30;;
11807;SDS011;5961;42.640;23.380;2023-11-21T08:51:02;15.50;;;9.20;;
11807;SDS011;5961;42.640;23.380;2023-11-21T08:53:29;15.67;;;9.53;;
11807;SDS011;5961;42.640;23.380;2023-11-21T08:55:57;14.10;;;8.73;;
11807;SDS011;5961;42.640;23.380;2023-11-21T08:58:23;15.77;;;9.10;;
11807;SDS011;5961;42.640;23.380;2023-11-21T09:00:51;13.73;;;8.77;;
11807;SDS011;5961;42.640;23.380;2023-11-21T09:03:18;15.90;;;8.77;;
11807;SDS011;5961;42.640;23.380;2023-11-21T09:05:45;18.23;;;9.37;;
11807;SDS011;5961;42.640;23.380;2023-11-21T09:08:12;15.97;;;9.77;;
11807;SDS011;5961;42.640;23.380;2023-11-21T09:10:39;15.50;;;8.60;;
11807;SDS011;5961;42.640;23.380;2023-11-21T09:13:07;18.07;;;10.90;;
11807;SDS011;5961;42.640;23.380;2023-11-21T09:15:35;28.63;;;16.13;;
11807;SDS011;5961;42.640;23.380;2023-11-21T09:18:03;33.13;;;18.63;;
11807;SDS011;5961;42.640;23.380;2023-11-21T09:20:31;32.50;;;17.63;;
11807;SDS011;5961;42.640;23.380;2023-11-21T09:22:58;27.03;;;16.50;;
11807;SDS011;5961;42.640;23.380;2023-11-21T09:25:24;29.03;;;16.30;;
11807;SDS011;5961;42.640;23.380;2023-11-21T09:27:51;29.93;;;17.60;;
11807;SDS011;5961;42.640;23.380;2023-11-21T09:30:18;36.57;;;17.00;;
11807;SDS011;5961;42.640;23.380;2023-11-21T09:32:45;25.47;;;16.10;;
11807;SDS011;5961;42.640;23.380;2023-11-21T09:35:13;28.83;;;16.10;;
11807;SDS011;5961;42.640;23.380;2023-11-21T09:37:41;33.60;;;17.40;;
11807;SDS011;5961;42.640;23.380;2023-11-21T09:40:10;29.13;;;16.00;;
11807;SDS011;5961;42.640;23.380;2023-11-21T09:42:39;28.30;;;15.40;;
11807;SDS011;5961;42.640;23.380;2023-11-21T09:45:13;25.70;;;15.37;;
11807;SDS011;5961;42.640;23.380;2023-11-21T09:47:45;30.77;;;15.20;;
11807;SDS011;5961;42.640;23.380;2023-11-21T09:50:15;22.07;;;13.93;;
11807;SDS011;5961;42.640;23.380;2023-11-21T09:52:48;23.10;;;14.00;;
11807;SDS011;5961;42.640;23.380;2023-11-21T09:55:22;22.53;;;14.50;;
11807;SDS011;5961;42.640;23.380;2023-11-21T09:57:54;23.73;;;14.40;;
11807;SDS011;5961;42.640;23.380;2023-11-21T10:00:25;27.27;;;13.20;;
11807;SDS011;5961;42.640;23.380;2023-11-21T10:02:52;18.90;;;13.13;;
11807;SDS011;5961;42.640;23.380;2023-11-21T10:05:21;21.03;;;12.37;;
11807;SDS011;5961;42.640;23.380;2023-11-21T10:07:48;21.47;;;11.37;;
11807;SDS011;5961;42.640;23.380;2023-11-21T10:10:17;18.53;;;11.37;;
11807;SDS011;5961;42.640;23.380;2023-11-21T10:12:48;15.40;;;10.93;;
11807;SDS011;5961;42.640;23.380;2023-11-21T10:15:18;19.97;;;11.47;;
11807;SDS011;5961;42.640;23.380;2023-11-21T10:17:48;20.77;;;12.60;;
11807;SDS011;5961;42.640;23.380;2023-11-21T10:20:15;17.90;;;11.50;;
11807;SDS011;5961;42.640;23.380;2023-11-21T10:22:44;13.43;;;10.07;;
11807;SDS011;5961;42.640;23.380;2023-11-21T10:25:11;15.57;;;9.70;;
11807;SDS011;5961;42.640;23.380;2023-11-21T10:27:40;19.27;;;10.33;;
11807;SDS011;5961;42.640;23.380;2023-11-21T10:30:09;13.50;;;9.53;;
11807;SDS011;5961;42.640;23.380;2023-11-21T10:32:37;15.57;;;8.93;;
11807;SDS011;5961;42.640;23.380;2023-11-21T10:35:06;18.33;;;8.77;;
11807;SDS011;5961;42.640;23.380;2023-11-21T10:37:35;16.93;;;9.87;;
11807;SDS011;5961;42.640;23.380;2023-11-21T10:40:06;13.70;;;9.20;;
11807;SDS011;5961;42.640;23.380;2023-11-21T10:42:34;15.30;;;9.10;;
11807;SDS011;5961;42.640;23.380;2023-11-21T10:45:01;18.13;;;9.43;;
11807;SDS011;5961;42.640;23.380;2023-11-21T10:47:30;13.20;;;9.13;;
11807;SDS011;5961;42.640;23.380;2023-11-21T10:49:57;16.03;;;9.77;;
11807;SDS011;5961;42.640;23.380;2023-11-21T10:52:27;14.33;;;9.50;;
11807;SDS011;5961;42.640;23.380;2023-11-21T10:54:54;17.30;;;10.73;;
11807;SDS011;5961;42.640;23.380;2023-11-21T10:57:22;16.40;;;10.53;;
11807;SDS011;5961;42.640;23.380;2023-11-21T10:59:50;21.13;;;12.60;;
11807;SDS011;5961;42.640;23.380;2023-11-21T11:02:23;21.03;;;11.90;;
11807;SDS011;5961;42.640;23.380;2023-11-21T11:04:53;22.87;;;12.00;;
11807;SDS011;5961;42.640;23.380;2023-11-21T11:07:20;22.40;;;12.27;;
11807;SDS011;5961;42.640;23.380;2023-11-21T11:09:52;22.97;;;12.93;;
11807;SDS011;5961;42.640;23.380;2023-11-21T11:12:19;21.47;;;12.10;;
11807;SDS011;5961;42.640;23.380;2023-11-21T11:14:47;19.87;;;11.37;;
11807;SDS011;5961;42.640;23.380;2023-11-21T11:17:15;22.77;;;11.77;;
11807;SDS011;5961;42.640;23.380;2023-11-21T11:19:45;23.83;;;12.70;;
11807;SDS011;5961;42.640;23.380;2023-11-21T11:22:16;18.97;;;11.67;;
11807;SDS011;5961;42.640;23.380;2023-11-21T11:25:03;22.77;;;12.80;;
11807;SDS011;5961;42.640;23.380;2023-11-21T11:27:48;21.57;;;12.53;;
11807;SDS011;5961;42.640;23.380;2023-11-21T11:30:26;21.50;;;13.50;;
11807;SDS011;5961;42.640;23.380;2023-11-21T11:33:08;20.33;;;11.97;;
11807;SDS011;5961;42.640;23.380;2023-11-21T11:35:42;16.90;;;10.47;;
11807;SDS011;5961;42.640;23.380;2023-11-21T11:38:19;21.33;;;11.23;;
11807;SDS011;5961;42.640;23.380;2023-11-21T11:40:48;18.90;;;10.50;;
11807;SDS011;5961;42.640;23.380;2023-11-21T11:43:24;20.90;;;10.77;;
11807;SDS011;5961;42.640;23.380;2023-11-21T11:45:53;20.47;;;11.37;;
11807;SDS011;5961;42.640;23.380;2023-11-21T11:48:22;18.37;;;10.67;;
11807;SDS011;5961;42.640;23.380;2023-11-21T11:53:37;16.33;;;10.73;;
11807;SDS011;5961;42.640;23.380;2023-11-21T11:59:03;21.13;;;11.83;;
11807;SDS011;5961;42.640;23.380;2023-11-21T12:01:33;21.17;;;12.30;;
11807;SDS011;5961;42.640;23.380;2023-11-21T12:07:00;18.57;;;11.63;;
11807;SDS011;5961;42.640;23.380;2023-11-21T12:09:28;17.13;;;10.27;;
11807;SDS011;5961;42.640;23.380;2023-11-21T12:11:57;15.53;;;10.43;;
11807;SDS011;5961;42.640;23.380;2023-11-21T12:14:25;16.27;;;11.40;;
11807;SDS011;5961;42.640;23.380;2023-11-21T12:16:53;16.73;;;10.80;;
11807;SDS011;5961;42.640;23.380;2023-11-21T12:19:20;21.40;;;11.63;;
11807;SDS011;5961;42.640;23.380;2023-11-21T12:21:48;20.50;;;12.10;;
11807;SDS011;5961;42.640;23.380;2023-11-21T12:24:15;18.23;;;12.43;;
11807;SDS011;5961;42.640;23.380;2023-11-21T12:26:42;22.90;;;12.37;;
11807;SDS011;5961;42.640;23.380;2023-11-21T12:29:10;20.03;;;12.27;;
11807;SDS011;5961;42.640;23.380;2023-11-21T12:31:37;20.93;;;12.53;;
11807;SDS011;5961;42.640;23.380;2023-11-21T12:34:06;25.27;;;13.17;;
11807;SDS011;5961;42.640;23.380;2023-11-21T12:36:36;17.60;;;12.57;;
11807;SDS011;5961;42.640;23.380;2023-11-21T12:39:03;22.20;;;13.70;;
11807;SDS011;5961;42.640;23.380;2023-11-21T12:41:31;24.60;;;14.63;;
11807;SDS011;5961;42.640;23.380;2023-11-21T12:43:57;25.57;;;15.37;;
11807;SDS011;5961;42.640;23.380;2023-11-21T12:46:24;24.27;;;15.77;;
11807;SDS011;5961;42.640;23.380;2023-11-21T12:48:54;24.63;;;15.73;;
11807;SDS011;5961;42.640;23.380;2023-11-21T12:51:23;23.83;;;15.83;;
11807;SDS011;5961;42.640;23.380;2023-11-21T12:53:50;24.90;;;16.80;;
11807;SDS011;5961;42.640;23.380;2023-11-21T12:56:18;30.80;;;17.43;;
11807;SDS011;5961;42.640;23.380;2023-11-21T12:58:48;28.27;;;16.37;;
11807;SDS011;5961;42.640;23.380;2023-11-21T13:01:15;27.20;;;17.30;;
11807;SDS011;5961;42.640;23.380;2023-11-21T13:03:45;30.57;;;19.03;;
11807;SDS011;5961;42.640;23.380;2023-11-21T13:06:15;33.00;;;19.23;;
11807;SDS011;5961;42.640;23.380;2023-11-21T13:08:48;33.57;;;19.37;;
11807;SDS011;5961;42.640;23.380;2023-11-21T13:11:14;30.73;;;18.63;;
11807;SDS011;5961;42.640;23.380;2023-11-21T13:13:43;31.77;;;19.83;;
11807;SDS011;5961;42.640;23.380;2023-11-21T13:19:11;32.80;;;18.97;;
11807;SDS011;5961;42.640;23.380;2023-11-21T13:21:38;35.60;;;19.80;;
11807;SDS011;5961;42.640;23.380;2023-11-21T13:24:07;31.13;;;17.77;;
11807;SDS011;5961;42.640;23.380;2023-11-21T13:26:35;30.73;;;18.50;;
11807;SDS011;5961;42.640;23.380;2023-11-21T13:29:02;31.67;;;19.47;;
11807;SDS011;5961;42.640;23.380;2023-11-21T13:31:30;27.70;;;19.13;;
11807;SDS011;5961;42.640;23.380;2023-11-21T13:33:57;33.90;;;19.47;;
11807;SDS011;5961;42.640;23.380;2023-11-21T13:36:30;31.70;;;20.10;;
11807;SDS011;5961;42.640;23.380;2023-11-21T13:38:58;35.30;;;20.03;;
11807;SDS011;5961;42.640;23.380;2023-11-21T13:41:31;36.03;;;20.30;;
11807;SDS011;5961;42.640;23.380;2023-11-21T13:43:58;34.47;;;20.60;;
11807;SDS011;5961;42.640;23.380;2023-11-21T13:46:34;29.77;;;19.30;;
11807;SDS011;5961;42.640;23.380;2023-11-21T13:49:02;36.40;;;19.53;;
11807;SDS011;5961;42.640;23.380;2023-11-21T13:51:34;34.00;;;20.20;;
11807;SDS011;5961;42.640;23.380;2023-11-21T13:54:05;30.60;;;19.50;;
11807;SDS011;5961;42.640;23.380;2023-11-21T13:56:36;30.77;;;20.10;;
11807;SDS011;5961;42.640;23.380;2023-11-21T13:59:05;37.03;;;21.00;;
11807;SDS011;5961;42.640;23.380;2023-11-21T14:01:42;34.77;;;19.93;;
11807;SDS011;5961;42.640;23.380;2023-11-21T14:04:19;32.73;;;19.30;;
11807;SDS011;5961;42.640;23.380;2023-11-21T14:07:00;32.57;;;19.67;;
11807;SDS011;5961;42.640;23.380;2023-11-21T14:09:44;34.40;;;20.33;;
11807;SDS011;5961;42.640;23.380;2023-11-21T14:12:12;38.40;;;21.37;;
11807;SDS011;5961;42.640;23.380;2023-11-21T14:14:40;39.73;;;20.87;;
11807;SDS011;5961;42.640;23.380;2023-11-21T14:17:08;31.70;;;20.93;;
11807;SDS011;5961;42.640;23.380;2023-11-21T14:19:35;32.27;;;20.50;;
11807;SDS011;5961;42.640;23.380;2023-11-21T14:22:05;34.93;;;20.90;;
11807;SDS011;5961;42.640;23.380;2023-11-21T14:24:32;36.37;;;20.53;;
11807;SDS011;5961;42.640;23.380;2023-11-21T14:26:59;36.83;;;21.90;;
11807;SDS011;5961;42.640;23.380;2023-11-21T14:29:27;32.10;;;20.27;;
11807;SDS011;5961;42.640;23.380;2023-11-21T14:31:55;32.93;;;20.83;;
11807;SDS011;5961;42.640;23.380;2023-11-21T14:34:23;36.67;;;21.20;;
11807;SDS011;5961;42.640;23.380;2023-11-21T14:36:51;32.67;;;20.90;;
11807;SDS011;5961;42.640;23.380;2023-11-21T14:39:18;29.90;;;20.43;;
11807;SDS011;5961;42.640;23.380;2023-11-21T14:41:48;30.30;;;20.47;;
11807;SDS011;5961;42.640;23.380;2023-11-21T14:44:15;32.80;;;19.90;;
11807;SDS011;5961;42.640;23.380;2023-11-21T14:46:44;34.80;;;19.97;;
11807;SDS011;5961;42.640;23.380;2023-11-21T14:49:11;30.57;;;19.63;;
11807;SDS011;5961;42.640;23.380;2023-11-21T14:51:44;34.27;;;20.03;;